createdAt,value
2018-05-03T00:01:11.133Z,4.27
2018-05-03T00:03:15.567Z,3.93
2018-05-03T00:05:19.725Z,4.80
2018-05-03T00:07:24.163Z,5.60
2018-05-03T00:09:28.591Z,4.67
2018-05-03T00:11:33.026Z,5.03
2018-05-03T00:13:38.263Z,4.87
2018-05-03T00:15:42.689Z,4.67
2018-05-03T00:17:47.886Z,5.00
2018-05-03T00:19:52.366Z,5.10
2018-05-03T00:21:56.783Z,5.90
2018-05-03T00:24:01.222Z,4.67
2018-05-03T00:26:05.661Z,4.57
2018-05-03T00:28:10.090Z,4.83
2018-05-03T00:30:14.246Z,5.00
2018-05-03T00:32:18.645Z,5.20
2018-05-03T00:34:23.195Z,5.13
2018-05-03T00:36:27.610Z,4.93
2018-05-03T00:38:32.035Z,4.93
2018-05-03T00:40:36.467Z,4.27
2018-05-03T00:42:40.915Z,4.90
2018-05-03T00:44:46.198Z,4.70
2018-05-03T00:46:50.246Z,4.63
2018-05-03T00:48:54.723Z,4.40
2018-05-03T00:50:59.874Z,5.10
2018-05-03T00:53:04.324Z,4.57
2018-05-03T00:55:09.530Z,4.13
2018-05-03T00:57:13.958Z,4.50
2018-05-03T00:59:18.452Z,4.70
2018-05-03T01:01:22.849Z,4.10
2018-05-03T01:03:27.265Z,4.63
2018-05-03T01:05:31.697Z,5.17
2018-05-03T01:07:36.648Z,4.80
2018-05-03T01:09:41.063Z,4.83
2018-05-03T01:11:45.490Z,4.53
2018-05-03T01:13:49.692Z,4.40
2018-05-03T01:15:54.797Z,4.50
2018-05-03T01:17:59.317Z,4.30
2018-05-03T01:20:03.122Z,4.20
2018-05-03T01:22:07.539Z,4.33
2018-05-03T01:24:11.962Z,5.37
2018-05-03T01:26:16.133Z,4.30
2018-05-03T01:28:20.559Z,4.17
2018-05-03T01:30:24.970Z,5.27
2018-05-03T01:32:29.386Z,4.67
2018-05-03T01:34:33.828Z,4.87
2018-05-03T01:36:37.714Z,4.80
2018-05-03T01:38:42.147Z,5.07
2018-05-03T01:40:46.567Z,4.97
2018-05-03T01:42:50.706Z,5.40
2018-05-03T01:44:55.161Z,4.97
2018-05-03T01:46:59.582Z,4.63
2018-05-03T01:49:03.671Z,5.03
2018-05-03T01:51:08.315Z,5.10
2018-05-03T01:53:12.725Z,4.23
2018-05-03T01:55:17.173Z,5.27
2018-05-03T01:57:22.408Z,5.30
2018-05-03T01:59:27.566Z,4.47
2018-05-03T02:01:31.752Z,4.43
2018-05-03T02:03:36.477Z,5.20
2018-05-03T02:05:40.862Z,4.50
2018-05-03T02:07:45.308Z,4.40
2018-05-03T02:09:49.721Z,5.00
2018-05-03T02:11:54.247Z,4.60
2018-05-03T02:13:58.374Z,4.53
2018-05-03T02:16:02.794Z,5.20
2018-05-03T02:18:07.230Z,5.60
2018-05-03T02:20:11.655Z,5.17
2018-05-03T02:22:16.614Z,5.07
2018-05-03T02:24:21.073Z,5.43
2018-05-03T02:26:25.775Z,7.50
2018-05-03T02:28:30.158Z,5.87
2018-05-03T02:30:34.622Z,5.30
2018-05-03T02:32:39.048Z,5.30
2018-05-03T02:34:43.484Z,4.50
2018-05-03T02:36:47.959Z,4.90
2018-05-03T02:38:52.354Z,5.30
2018-05-03T02:40:56.859Z,5.90
2018-05-03T02:43:01.418Z,4.73
2018-05-03T02:45:05.510Z,5.37
2018-05-03T02:47:09.932Z,5.87
2018-05-03T02:49:14.458Z,5.90
2018-05-03T02:51:18.873Z,7.87
2018-05-03T02:53:23.298Z,5.57
2018-05-03T02:55:27.719Z,5.67
2018-05-03T03:00:37.636Z,5.27
2018-05-03T03:02:58.546Z,6.20
2018-05-03T03:05:19.383Z,6.50
2018-05-03T03:07:32.323Z,5.97
2018-05-03T03:15:42.942Z,9.17
2018-05-03T03:18:04.085Z,5.93
2018-05-03T03:23:13.241Z,6.60
2018-05-03T03:25:28.731Z,6.47
2018-05-03T03:27:49.830Z,6.07
2018-05-03T03:30:05.289Z,6.10
2018-05-03T03:32:20.767Z,6.10
2018-05-03T03:34:28.053Z,6.07
2018-05-03T03:39:16.814Z,7.00
2018-05-03T03:41:32.265Z,6.10
2018-05-03T03:43:47.702Z,5.83
2018-05-03T03:45:51.848Z,7.10
2018-05-03T03:47:55.518Z,5.97
2018-05-03T03:50:00.418Z,6.13
2018-05-03T03:52:04.854Z,5.80
2018-05-03T03:54:09.261Z,6.80
2018-05-03T03:56:13.700Z,6.17
2018-05-03T03:58:17.818Z,5.07
2018-05-03T04:00:21.950Z,6.73
2018-05-03T04:02:27.134Z,6.50
2018-05-03T04:04:31.878Z,6.63
2018-05-03T04:06:36.304Z,6.87
2018-05-03T04:08:40.718Z,6.40
2018-05-03T04:10:45.143Z,6.50
2018-05-03T04:12:49.562Z,6.33
2018-05-03T04:14:54.750Z,5.57
2018-05-03T04:16:59.199Z,5.20
2018-05-03T04:19:15.198Z,6.40
2018-05-03T04:21:30.760Z,6.30
2018-05-03T04:23:46.716Z,7.03
2018-05-03T04:26:02.074Z,6.70
2018-05-03T04:28:06.214Z,5.60
2018-05-03T04:30:10.644Z,5.47
2018-05-03T04:32:15.064Z,6.30
2018-05-03T04:34:19.506Z,4.80
2018-05-03T04:36:24.700Z,6.53
2018-05-03T04:38:29.122Z,5.23
2018-05-03T04:40:33.574Z,5.30
2018-05-03T04:42:38.856Z,8.33
2018-05-03T04:44:44.014Z,7.43
2018-05-03T04:46:48.464Z,7.60
2018-05-03T04:48:53.871Z,7.97
2018-05-03T04:50:58.358Z,6.60
2018-05-03T04:53:02.781Z,6.97
2018-05-03T04:55:07.210Z,6.30
2018-05-03T04:57:11.847Z,8.03
2018-05-03T04:59:16.791Z,8.33
2018-05-03T05:01:20.935Z,6.00
2018-05-03T05:03:25.377Z,7.70
2018-05-03T05:05:29.822Z,8.10
2018-05-03T05:07:34.250Z,6.27
2018-05-03T05:09:38.742Z,6.83
2018-05-03T05:11:43.174Z,5.50
2018-05-03T05:13:47.629Z,3.80
2018-05-03T05:15:52.614Z,7.60
2018-05-03T05:17:57.136Z,9.07
2018-05-03T05:20:01.679Z,4.80
2018-05-03T05:22:06.881Z,5.13
2018-05-03T05:24:11.349Z,4.20
2018-05-03T05:26:15.934Z,4.90
2018-05-03T05:28:21.903Z,5.77
2018-05-03T05:30:27.091Z,4.23
2018-05-03T05:32:31.564Z,5.40
2018-05-03T05:34:36.758Z,3.40
2018-05-03T05:36:41.170Z,2.83
2018-05-03T05:38:45.605Z,2.27
2018-05-03T05:40:50.014Z,1.97
2018-05-03T05:42:54.239Z,1.30
2018-05-03T05:44:58.837Z,1.70
2018-05-03T05:47:03.274Z,1.47
2018-05-03T05:49:07.734Z,2.00
2018-05-03T05:51:12.258Z,1.40
2018-05-03T05:53:16.794Z,1.30
2018-05-03T05:55:21.750Z,1.40
2018-05-03T05:57:26.183Z,1.80
2018-05-03T05:59:30.094Z,2.03
2018-05-03T06:01:34.550Z,2.23
2018-05-03T06:03:38.999Z,1.37
2018-05-03T06:05:43.417Z,1.80
2018-05-03T06:07:48.455Z,1.23
2018-05-03T06:09:52.945Z,1.27
2018-05-03T06:11:57.334Z,1.70
2018-05-03T06:14:01.772Z,2.03
2018-05-03T06:16:06.298Z,1.37
2018-05-03T06:18:11.050Z,1.43
2018-05-03T06:20:15.479Z,1.50
2018-05-03T06:22:19.907Z,1.47
2018-05-03T06:24:23.833Z,1.60
2018-05-03T06:26:28.266Z,1.03
2018-05-03T06:28:32.695Z,1.40
2018-05-03T06:30:37.153Z,1.63
2018-05-03T06:32:41.784Z,1.23
2018-05-03T06:34:47.068Z,1.37
2018-05-03T06:36:52.242Z,1.50
2018-05-03T06:38:56.760Z,1.30
2018-05-03T06:41:02.057Z,1.40
2018-05-03T06:43:06.405Z,1.20
2018-05-03T06:45:11.682Z,1.50
2018-05-03T06:47:16.245Z,1.20
2018-05-03T06:49:21.090Z,1.40
2018-05-03T06:51:25.566Z,1.40
2018-05-03T06:53:30.913Z,1.20
2018-05-03T06:55:35.741Z,1.20
2018-05-03T06:57:40.126Z,1.43
2018-05-03T06:59:44.551Z,1.20
2018-05-03T07:01:49.019Z,1.43
2018-05-03T07:03:53.444Z,1.10
2018-05-03T07:05:57.870Z,2.20
2018-05-03T07:08:03.390Z,2.00
2018-05-03T07:10:07.815Z,1.33
2018-05-03T07:12:12.009Z,1.80
2018-05-03T07:14:17.265Z,1.37
2018-05-03T07:16:21.755Z,1.90
2018-05-03T07:18:26.326Z,1.30
2018-05-03T07:20:31.534Z,1.70
2018-05-03T07:22:35.970Z,1.50
2018-05-03T07:24:41.180Z,1.27
2018-05-03T07:26:45.918Z,1.70
2018-05-03T07:28:50.410Z,0.93
2018-05-03T07:30:54.241Z,1.97
2018-05-03T07:32:59.055Z,1.33
2018-05-03T07:35:03.361Z,2.00
2018-05-03T07:37:07.753Z,1.03
2018-05-03T07:39:12.207Z,1.50
2018-05-03T07:41:16.621Z,1.60
2018-05-03T07:43:21.067Z,1.63
2018-05-03T07:45:25.563Z,1.00
2018-05-03T07:47:30.677Z,1.10
2018-05-03T07:49:35.109Z,2.00
2018-05-03T07:51:39.545Z,1.23
2018-05-03T07:53:44.738Z,1.23
2018-05-03T07:55:48.934Z,1.40
2018-05-03T07:57:53.366Z,1.43
2018-05-03T07:59:58.318Z,2.17
2018-05-03T08:02:02.795Z,2.00
2018-05-03T08:04:07.371Z,1.20
2018-05-03T08:06:12.669Z,1.27
2018-05-03T08:08:17.195Z,2.07
2018-05-03T08:10:21.644Z,2.50
2018-05-03T08:12:26.844Z,1.40
2018-05-03T08:14:31.457Z,1.73
2018-05-03T08:16:35.882Z,1.97
2018-05-03T08:18:40.413Z,1.73
2018-05-03T08:20:44.834Z,1.57
2018-05-03T08:22:49.257Z,1.63
2018-05-03T08:24:54.473Z,1.10
2018-05-03T08:26:58.908Z,1.00
2018-05-03T08:29:04.100Z,1.80
2018-05-03T08:31:08.529Z,1.30
2018-05-03T08:33:12.674Z,2.10
2018-05-03T08:35:17.938Z,2.00
2018-05-03T08:37:22.511Z,1.40
2018-05-03T08:39:26.938Z,1.57
2018-05-03T08:41:31.365Z,1.63
2018-05-03T08:43:35.993Z,1.57
2018-05-03T08:45:41.384Z,1.23
2018-05-03T08:47:45.829Z,2.10
2018-05-03T08:49:50.258Z,1.93
2018-05-03T08:51:55.445Z,1.27
2018-05-03T08:53:59.886Z,1.97
2018-05-03T08:56:04.322Z,1.40
2018-05-03T08:58:08.749Z,1.87
2018-05-03T09:00:14.374Z,1.47
2018-05-03T09:02:18.804Z,1.47
2018-05-03T09:04:23.223Z,1.73
2018-05-03T09:06:28.122Z,1.77
2018-05-03T09:08:32.725Z,1.67
2018-05-03T09:10:37.159Z,2.03
2018-05-03T09:12:41.595Z,1.97
2018-05-03T09:14:46.014Z,2.30
2018-05-03T09:16:51.214Z,2.13
2018-05-03T09:18:55.647Z,1.27
2018-05-03T09:21:00.078Z,1.30
2018-05-03T09:23:04.512Z,1.60
2018-05-03T09:25:09.694Z,1.60
2018-05-03T09:27:14.134Z,1.30
2018-05-03T09:29:19.321Z,1.20
2018-05-03T09:31:23.744Z,1.53
2018-05-03T09:33:28.194Z,1.40
2018-05-03T09:35:32.833Z,1.30
2018-05-03T09:37:37.264Z,2.00
2018-05-03T09:39:42.458Z,1.63
2018-05-03T09:41:46.897Z,1.57
2018-05-03T09:43:51.846Z,2.20
2018-05-03T09:45:57.044Z,1.93
2018-05-03T09:48:01.751Z,0.90
2018-05-03T09:50:06.149Z,0.77
2018-05-03T09:52:10.614Z,1.90
2018-05-03T09:54:15.577Z,2.03
2018-05-03T09:56:20.003Z,1.50
2018-05-03T09:58:24.425Z,1.63
2018-05-03T10:00:28.850Z,1.20
2018-05-03T10:02:33.407Z,1.23
2018-05-03T10:04:37.838Z,1.53
2018-05-03T10:06:43.695Z,0.77
2018-05-03T10:08:48.127Z,1.57
2018-05-03T10:10:53.313Z,1.50
2018-05-03T10:12:58.253Z,1.40
2018-05-03T10:15:02.682Z,1.47
2018-05-03T10:17:07.114Z,1.67
2018-05-03T10:19:12.733Z,1.50
2018-05-03T10:21:17.667Z,2.23
2018-05-03T10:23:22.082Z,1.67
2018-05-03T10:25:27.282Z,1.30
2018-05-03T10:27:31.702Z,1.40
2018-05-03T10:29:36.133Z,1.10
2018-05-03T10:31:40.569Z,2.20
2018-05-03T10:33:44.998Z,1.50
2018-05-03T10:35:49.452Z,1.60
2018-05-03T10:37:54.834Z,1.30
2018-05-03T10:39:59.290Z,1.30
2018-05-03T10:42:04.261Z,1.60
2018-05-03T10:44:08.778Z,1.40
2018-05-03T10:46:13.230Z,1.53
2018-05-03T10:48:17.658Z,1.17
2018-05-03T10:50:22.869Z,2.30
2018-05-03T10:52:27.802Z,1.30
2018-05-03T10:54:32.234Z,1.53
2018-05-03T10:56:37.430Z,1.83
2018-05-03T10:58:41.873Z,1.30
2018-05-03T11:00:46.298Z,1.20
2018-05-03T11:02:51.495Z,1.80
2018-05-03T11:04:55.971Z,1.17
2018-05-03T11:07:01.237Z,0.90
2018-05-03T11:09:06.202Z,1.60
2018-05-03T11:11:10.675Z,2.23
2018-05-03T11:13:16.026Z,1.90
2018-05-03T11:15:20.466Z,1.30
2018-05-03T11:17:25.114Z,1.80
2018-05-03T11:19:30.334Z,1.57
2018-05-03T11:21:35.246Z,2.00
2018-05-03T11:23:39.340Z,1.30
2018-05-03T11:25:43.771Z,1.63
2018-05-03T11:27:48.227Z,1.47
2018-05-03T11:29:53.417Z,1.40
2018-05-03T11:31:58.057Z,1.90
2018-05-03T11:34:02.984Z,1.20
2018-05-03T11:36:07.610Z,1.70
2018-05-03T11:38:12.038Z,2.07
2018-05-03T11:40:16.461Z,1.70
2018-05-03T11:42:21.658Z,1.53
2018-05-03T11:44:26.075Z,1.73
2018-05-03T11:46:30.517Z,1.57
2018-05-03T11:48:36.873Z,1.87
2018-05-03T11:50:42.798Z,1.20
2018-05-03T11:52:47.236Z,1.80
2018-05-03T11:54:51.679Z,1.27
2018-05-03T11:56:56.529Z,1.80
2018-05-03T11:59:00.708Z,1.30
2018-05-03T12:01:04.872Z,1.40
2018-05-03T12:03:09.277Z,1.77
2018-05-03T12:05:13.726Z,1.67
2018-05-03T12:07:18.158Z,1.33
2018-05-03T12:09:23.342Z,1.60
2018-05-03T12:11:27.772Z,1.77
2018-05-03T12:13:32.210Z,1.70
2018-05-03T12:15:36.650Z,1.10
2018-05-03T12:17:41.078Z,1.70
2018-05-03T12:19:46.605Z,1.40
2018-05-03T12:21:51.030Z,1.40
2018-05-03T12:23:55.447Z,1.20
2018-05-03T12:25:59.898Z,1.87
2018-05-03T12:28:04.133Z,1.43
2018-05-03T12:30:08.742Z,1.50
2018-05-03T12:32:13.499Z,1.40
2018-05-03T12:34:17.922Z,1.50
2018-05-03T12:36:23.114Z,1.20
2018-05-03T12:38:27.230Z,1.77
2018-05-03T12:40:31.758Z,1.43
2018-05-03T12:42:36.905Z,1.57
2018-05-03T12:44:41.307Z,1.53
2018-05-03T12:46:45.722Z,1.60
2018-05-03T12:48:49.816Z,1.47
2018-05-03T12:50:54.149Z,1.10
2018-05-03T12:52:58.598Z,1.43
2018-05-03T12:55:04.722Z,1.80
2018-05-03T12:57:09.149Z,1.30
2018-05-03T12:59:13.597Z,1.77
2018-05-03T13:01:18.041Z,1.40
2018-05-03T13:03:22.459Z,1.83
2018-05-03T13:05:26.889Z,1.30
2018-05-03T13:07:31.309Z,1.50
2018-05-03T13:09:36.274Z,1.57
2018-05-03T13:11:40.694Z,1.43
2018-05-03T13:13:46.635Z,1.43
2018-05-03T13:15:51.258Z,1.30
2018-05-03T13:17:55.677Z,1.83
2018-05-03T13:20:00.611Z,1.80
2018-05-03T13:22:05.051Z,1.80
2018-05-03T13:24:10.230Z,1.63
2018-05-03T13:26:15.003Z,1.43
2018-05-03T13:28:19.417Z,1.60
2018-05-03T13:30:23.830Z,1.70
2018-05-03T13:32:28.283Z,1.77
2018-05-03T13:34:32.777Z,1.40
2018-05-03T13:36:37.334Z,1.67
2018-05-03T13:38:42.206Z,1.07
2018-05-03T13:40:47.899Z,1.80
2018-05-03T13:42:52.322Z,1.63
2018-05-03T13:44:57.170Z,1.30
2018-05-03T13:47:01.550Z,1.30
2018-05-03T13:49:05.970Z,1.60
2018-05-03T13:51:10.418Z,1.23
2018-05-03T13:53:14.567Z,1.63
2018-05-03T13:55:18.766Z,1.67
2018-05-03T13:57:23.234Z,1.10
2018-05-03T13:59:27.658Z,1.43
2018-05-03T14:01:32.086Z,1.77
2018-05-03T14:03:36.530Z,1.60
2018-05-03T14:05:42.489Z,1.43
2018-05-03T14:07:46.966Z,1.33
2018-05-03T14:09:51.414Z,1.93
2018-05-03T14:11:55.869Z,1.23
2018-05-03T14:14:01.046Z,1.50
2018-05-03T14:16:05.803Z,1.70
2018-05-03T14:18:10.239Z,1.73
2018-05-03T14:20:15.393Z,1.47
2018-05-03T14:22:20.063Z,1.13
2018-05-03T14:24:24.490Z,1.43
2018-05-03T14:26:28.923Z,1.40
2018-05-03T14:28:34.135Z,1.70
2018-05-03T14:30:38.596Z,1.57
2018-05-03T14:32:43.035Z,1.53
2018-05-03T14:34:47.493Z,1.87
2018-05-03T14:36:51.915Z,1.90
2018-05-03T14:38:56.346Z,1.70
2018-05-03T14:41:01.551Z,1.77
2018-05-03T14:43:05.987Z,1.47
2018-05-03T14:45:10.410Z,1.77
2018-05-03T14:47:15.773Z,2.23
2018-05-03T14:49:20.290Z,1.80
2018-05-03T14:51:24.736Z,1.70
2018-05-03T14:53:29.719Z,1.90
2018-05-03T14:55:34.910Z,1.70
2018-05-03T14:57:39.421Z,1.37
2018-05-03T14:59:43.847Z,1.07
2018-05-03T15:01:48.286Z,2.00
2018-05-03T15:03:52.710Z,2.00
2018-05-03T15:05:58.091Z,2.07
2018-05-03T15:08:02.742Z,1.50
2018-05-03T15:10:07.166Z,1.47
2018-05-03T15:12:11.593Z,1.40
2018-05-03T15:14:15.786Z,1.40
2018-05-03T15:16:20.232Z,2.00
2018-05-03T15:18:24.858Z,2.13
2018-05-03T15:20:29.477Z,2.27
2018-05-03T15:22:34.125Z,1.60
2018-05-03T15:24:38.559Z,1.70
2018-05-03T15:26:43.941Z,1.83
2018-05-03T15:28:48.374Z,1.67
2018-05-03T15:30:53.562Z,2.40
2018-05-03T15:32:58.078Z,1.67
2018-05-03T15:35:02.250Z,1.87
2018-05-03T15:37:06.694Z,1.80
2018-05-03T15:39:11.134Z,1.70
2018-05-03T15:41:15.794Z,1.80
2018-05-03T15:43:20.977Z,1.40
2018-05-03T15:45:25.410Z,1.80
2018-05-03T15:47:30.047Z,1.77
2018-05-03T15:49:34.471Z,1.63
2018-05-03T15:51:38.902Z,1.90
2018-05-03T15:53:44.106Z,2.23
2018-05-03T15:55:48.809Z,2.00
2018-05-03T15:57:53.959Z,1.47
2018-05-03T15:59:58.158Z,1.60
2018-05-03T16:02:02.586Z,2.17
2018-05-03T16:04:07.250Z,1.60
2018-05-03T16:06:11.833Z,2.00
2018-05-03T16:08:16.262Z,1.53
2018-05-03T16:10:20.695Z,1.50
2018-05-03T16:12:24.855Z,1.27
2018-05-03T16:14:29.283Z,1.47
2018-05-03T16:16:33.715Z,1.20
2018-05-03T16:18:38.164Z,1.30
2018-05-03T16:20:43.358Z,2.00
2018-05-03T16:22:48.274Z,1.80
2018-05-03T16:24:53.932Z,1.20
2018-05-03T16:26:58.126Z,1.60
2018-05-03T16:29:02.561Z,1.60
2018-05-03T16:31:07.007Z,1.27
2018-05-03T16:33:12.196Z,1.73
2018-05-03T16:35:16.657Z,1.73
2018-05-03T16:37:21.074Z,1.90
2018-05-03T16:39:26.279Z,1.97
2018-05-03T16:41:30.710Z,1.83
2018-05-03T16:43:36.646Z,1.50
2018-05-03T16:45:41.117Z,2.40
2018-05-03T16:47:45.541Z,1.70
2018-05-03T16:49:49.977Z,1.50
2018-05-03T16:51:54.433Z,1.47
2018-05-03T16:54:00.567Z,1.67
2018-05-03T16:56:05.048Z,1.90
2018-05-03T16:58:09.469Z,2.10
2018-05-03T17:00:13.891Z,2.87
2018-05-03T17:02:18.554Z,1.93
2018-05-03T17:04:22.978Z,1.50
2018-05-03T17:06:28.186Z,1.77
2018-05-03T17:08:32.634Z,1.83
2018-05-03T17:10:37.069Z,1.73
2018-05-03T17:12:42.468Z,1.97
2018-05-03T17:14:47.309Z,1.90
2018-05-03T17:16:53.259Z,2.87
2018-05-03T17:18:59.195Z,1.50
2018-05-03T17:21:03.611Z,1.90
2018-05-03T17:23:08.037Z,1.63
2018-05-03T17:25:12.458Z,1.40
2018-05-03T17:27:16.886Z,1.40
2018-05-03T17:29:22.813Z,1.33
2018-05-03T17:31:27.318Z,1.20
2018-05-03T17:33:32.491Z,1.30
2018-05-03T17:35:36.910Z,1.97
2018-05-03T17:37:41.325Z,1.60
2018-05-03T17:39:45.538Z,2.00
2018-05-03T17:41:49.726Z,1.33
2018-05-03T17:43:54.145Z,1.57
2018-05-03T17:45:58.648Z,1.30
2018-05-03T17:48:03.062Z,1.03
2018-05-03T17:50:07.485Z,1.50
2018-05-03T17:52:11.918Z,1.20
2018-05-03T17:54:16.354Z,1.40
2018-05-03T17:56:21.366Z,1.10
2018-05-03T17:58:25.790Z,1.53
2018-05-03T18:00:30.222Z,1.53
2018-05-03T18:02:35.455Z,1.40
2018-05-03T18:04:40.117Z,1.47
2018-05-03T18:06:44.692Z,1.63
2018-05-03T18:08:49.319Z,1.20
2018-05-03T18:10:54.542Z,1.43
2018-05-03T18:12:58.850Z,1.30
2018-05-03T18:15:03.321Z,1.10
2018-05-03T18:17:07.756Z,1.43
2018-05-03T18:19:12.164Z,1.17
2018-05-03T18:21:16.275Z,1.27
2018-05-03T18:23:20.700Z,0.90
2018-05-03T18:25:25.122Z,0.90
2018-05-03T18:27:29.562Z,1.13
2018-05-03T18:29:35.271Z,1.27
2018-05-03T18:31:39.687Z,1.10
2018-05-03T18:33:44.124Z,1.27
2018-05-03T18:35:48.549Z,1.37
2018-05-03T18:37:52.978Z,1.20
2018-05-03T18:39:57.801Z,1.10
2018-05-03T18:42:02.244Z,1.00
2018-05-03T18:44:07.727Z,1.43
2018-05-03T18:46:12.492Z,1.30
2018-05-03T18:48:17.122Z,1.53
2018-05-03T18:50:22.310Z,1.17
2018-05-03T18:52:26.765Z,1.37
2018-05-03T18:54:30.954Z,1.00
2018-05-03T18:56:35.386Z,1.40
2018-05-03T18:58:39.827Z,1.20
2018-05-03T19:00:45.067Z,1.30
2018-05-03T19:02:49.499Z,1.20
2018-05-03T19:04:53.915Z,1.20
2018-05-03T19:06:58.357Z,1.30
2018-05-03T19:09:02.787Z,1.07
2018-05-03T19:11:07.137Z,0.90
2018-05-03T19:13:11.875Z,1.13
2018-05-03T19:15:16.070Z,1.10
2018-05-03T19:17:21.259Z,1.20
2018-05-03T19:19:25.682Z,1.70
2018-05-03T19:21:30.191Z,1.20
2018-05-03T19:23:35.355Z,1.63
2018-05-03T19:25:39.784Z,1.73
2018-05-03T19:27:44.208Z,1.57
2018-05-03T19:29:48.805Z,1.60
2018-05-03T19:31:54.962Z,1.40
2018-05-03T19:33:59.381Z,1.87
2018-05-03T19:36:03.815Z,1.60
2018-05-03T19:38:08.243Z,1.30
2018-05-03T19:40:13.627Z,1.70
2018-05-03T19:42:18.087Z,1.20
2018-05-03T19:44:22.506Z,1.37
2018-05-03T19:46:26.686Z,1.27
2018-05-03T19:48:31.691Z,1.27
2018-05-03T19:50:36.103Z,1.23
2018-05-03T19:52:40.530Z,1.67
2018-05-03T19:54:44.995Z,1.20
2018-05-03T19:56:50.940Z,1.50
2018-05-03T19:58:55.542Z,1.60
2018-05-03T20:01:00.178Z,1.20
2018-05-03T20:03:04.602Z,1.30
2018-05-03T20:05:09.018Z,1.70
2018-05-03T20:07:14.222Z,1.60
2018-05-03T20:09:18.938Z,1.53
2018-05-03T20:11:23.371Z,5.50
2018-05-03T20:13:27.795Z,2.03
2018-05-03T20:15:32.703Z,1.80
2018-05-03T20:17:37.133Z,1.60
2018-05-03T20:19:41.777Z,2.23
2018-05-03T20:21:46.197Z,1.60
2018-05-03T20:23:51.412Z,1.80
2018-05-03T20:25:55.879Z,1.43
2018-05-03T20:28:00.298Z,1.90
2018-05-03T20:30:04.391Z,2.17
2018-05-03T20:32:09.613Z,1.67
2018-05-03T20:34:14.234Z,1.37
2018-05-03T20:36:19.453Z,1.57
2018-05-03T20:38:23.920Z,1.90
2018-05-03T20:40:28.346Z,2.00
2018-05-03T20:42:33.116Z,1.40
2018-05-03T20:44:37.538Z,1.53
2018-05-03T20:46:41.954Z,1.67
2018-05-03T20:48:46.571Z,1.63
2018-05-03T20:50:50.765Z,1.80
2018-05-03T20:52:54.874Z,1.80
2018-05-03T20:54:58.989Z,2.27
2018-05-03T20:57:03.419Z,1.80
2018-05-03T20:59:07.829Z,1.97
2018-05-03T21:01:12.298Z,1.77
2018-05-03T21:03:16.735Z,1.70
2018-05-03T21:05:21.164Z,1.60
2018-05-03T21:07:25.600Z,1.70
2018-05-03T21:09:30.066Z,2.30
2018-05-03T21:11:34.751Z,1.80
2018-05-03T21:13:38.887Z,2.13
2018-05-03T21:15:43.331Z,2.13
2018-05-03T21:17:47.750Z,1.70
2018-05-03T21:19:52.202Z,2.03
2018-05-03T21:21:56.665Z,1.90
2018-05-03T21:24:01.139Z,2.07
2018-05-03T21:26:05.759Z,1.70
2018-05-03T21:28:10.371Z,2.40
2018-05-03T21:30:15.103Z,1.80
2018-05-03T21:32:19.731Z,1.73
2018-05-03T21:34:24.148Z,1.73
2018-05-03T21:36:28.350Z,2.13
2018-05-03T21:38:34.271Z,1.83
2018-05-03T21:40:38.686Z,2.07
2018-05-03T21:42:43.127Z,2.10
2018-05-03T21:44:47.555Z,2.00
2018-05-03T21:46:51.965Z,2.20
2018-05-03T21:48:56.387Z,2.00
2018-05-03T21:51:02.310Z,2.10
2018-05-03T21:53:07.064Z,1.87
2018-05-03T21:55:11.474Z,2.00
2018-05-03T21:57:15.889Z,1.67
2018-05-03T21:59:20.310Z,1.70
2018-05-03T22:01:24.738Z,1.47
2018-05-03T22:03:29.352Z,1.80
2018-05-03T22:05:33.798Z,1.57
2018-05-03T22:07:38.218Z,2.00
2018-05-03T22:09:42.634Z,1.97
2018-05-03T22:11:47.078Z,1.70
2018-05-03T22:13:51.579Z,1.57
2018-05-03T22:15:55.786Z,1.63
2018-05-03T22:18:00.219Z,1.67
2018-05-03T22:20:04.334Z,1.93
2018-05-03T22:22:08.751Z,1.90
2018-05-03T22:24:12.977Z,1.90
2018-05-03T22:26:17.454Z,1.93
2018-05-03T22:28:21.877Z,2.17
2018-05-03T22:30:26.302Z,1.73
2018-05-03T22:32:30.724Z,1.67
2018-05-03T22:34:34.879Z,2.40
2018-05-03T22:36:39.505Z,1.90
2018-05-03T22:38:43.938Z,1.83
2018-05-03T22:40:48.779Z,1.80
2018-05-03T22:42:53.251Z,2.33
2018-05-03T22:44:57.638Z,3.03
2018-05-03T22:47:02.059Z,2.83
2018-05-03T22:49:06.510Z,2.60
2018-05-03T22:51:10.930Z,2.90
2018-05-03T22:53:15.346Z,3.43
2018-05-03T22:55:19.778Z,3.10
2018-05-03T22:57:24.966Z,2.67
2018-05-03T22:59:29.385Z,2.50
2018-05-03T23:01:33.814Z,2.50
2018-05-03T23:03:37.908Z,2.50
2018-05-03T23:05:42.330Z,2.40
2018-05-03T23:07:46.771Z,2.90
2018-05-03T23:09:51.203Z,2.30
2018-05-03T23:11:56.382Z,2.70
2018-05-03T23:14:00.826Z,2.23
2018-05-03T23:16:05.019Z,3.47
2018-05-03T23:18:09.433Z,2.17
2018-05-03T23:20:13.869Z,2.50
2018-05-03T23:22:18.301Z,2.33
2018-05-03T23:24:22.438Z,2.53
2018-05-03T23:26:26.283Z,2.40
2018-05-03T23:28:30.687Z,2.53
2018-05-03T23:30:35.110Z,2.63
2018-05-03T23:32:39.556Z,2.80
2018-05-03T23:34:43.981Z,3.23
2018-05-03T23:36:48.458Z,2.67
2018-05-03T23:38:53.646Z,2.60
2018-05-03T23:40:58.825Z,2.47
2018-05-03T23:43:03.258Z,3.00
2018-05-03T23:45:07.845Z,2.53
2018-05-03T23:47:12.262Z,3.57
2018-05-03T23:49:16.694Z,6.60
2018-05-03T23:51:21.118Z,3.90
2018-05-03T23:53:25.743Z,2.87
2018-05-03T23:55:30.166Z,2.03
2018-05-03T23:57:34.677Z,2.50
2018-05-03T23:59:39.255Z,2.60
